Time;durP1;ratioP1;P1;durP2;ratioP2;P2;SDS_P1;SDS_P2;PMS_P1;PMS_P2;Temp;Humidity;BMP_temperature;BMP_pressure;BME280_temperature;BME280_humidity;BME280_pressure;Samples;Min_cycle;Max_cycle;Signal;HPM_P1;HPM_P2
2023/01/15 00:00:59;;;;;;;6.00;1.73;;;;;;;6.89;84.62;99859.41;5023570;28;20040;-65
2023/01/15 00:03:25;;;;;;;5.95;1.13;;;;;;;6.89;85.69;99853.34;5023933;28;20035;-65
2023/01/15 00:05:50;;;;;;;7.00;1.50;;;;;;;6.87;85.85;99850.72;5022826;28;20108;-65
2023/01/15 00:08:15;;;;;;;6.40;1.20;;;;;;;6.86;85.93;99856.75;5023980;28;20036;-65
2023/01/15 00:10:40;;;;;;;5.20;1.40;;;;;;;6.85;87.92;99854.13;5024313;28;20029;-65
2023/01/15 00:13:06;;;;;;;8.20;1.60;;;;;;;6.83;87.26;99858.41;5024132;28;20449;-65
2023/01/15 00:15:31;;;;;;;7.32;1.50;;;;;;;6.80;88.10;99856.59;5022816;28;20040;-65
2023/01/15 00:17:57;;;;;;;4.75;1.27;;;;;;;6.80;88.27;99854.03;5024125;28;20037;-65
2023/01/15 00:20:22;;;;;;;3.90;1.38;;;;;;;6.76;88.93;99854.78;5023840;28;20048;-65
2023/01/15 00:22:47;;;;;;;5.20;1.60;;;;;;;6.73;90.01;99863.34;5024076;28;20033;-65
2023/01/15 00:27:57;;;;;;;6.57;1.52;;;;;;;6.69;91.84;99839.94;5024570;28;20067;-65
2023/01/15 00:30:23;;;;;;;6.25;1.80;;;;;;;6.66;92.20;99848.50;5023972;28;20034;-65
2023/01/15 00:32:49;;;;;;;7.35;1.63;;;;;;;6.64;92.04;99836.41;5024112;28;20026;-65
2023/01/15 00:35:16;;;;;;;7.95;2.20;;;;;;;6.63;91.94;99848.44;5027748;28;20096;-65
2023/01/15 00:37:42;;;;;;;6.65;1.38;;;;;;;6.59;91.30;99842.34;5027491;28;20033;-65
2023/01/15 00:40:08;;;;;;;7.15;1.80;;;;;;;6.57;91.48;99844.00;5027111;28;20022;-65
2023/01/15 00:42:33;;;;;;;5.55;1.60;;;;;;;6.57;91.93;99843.13;5027711;28;20033;-65
2023/01/15 00:45:04;;;;;;;5.88;1.70;;;;;;;6.56;91.19;99859.50;5027316;28;20078;-65
2023/01/15 00:47:30;;;;;;;5.80;1.45;;;;;;;6.53;89.06;99859.41;5027823;28;20564;-65
2023/01/15 00:49:55;;;;;;;4.55;1.45;;;;;;;6.52;90.32;99862.88;5027933;28;20029;-65
2023/01/15 00:52:20;;;;;;;6.20;1.50;;;;;;;6.51;90.14;99855.94;5027553;28;20036;-65
2023/01/15 00:54:47;;;;;;;8.05;1.63;;;;;;;6.52;89.73;99865.47;5027584;28;20458;-65
2023/01/15 00:57:12;;;;;;;9.30;1.70;;;;;;;6.51;89.35;99874.06;5027707;28;20076;-65
2023/01/15 00:59:37;;;;;;;5.35;1.65;;;;;;;6.49;89.02;99868.84;5027465;28;20452;-65
2023/01/15 01:02:03;;;;;;;5.65;1.60;;;;;;;6.49;88.39;99873.13;5027366;28;20581;-65
2023/01/15 01:04:28;;;;;;;7.68;1.70;;;;;;;6.48;88.27;99884.34;5027978;28;20460;-65
2023/01/15 01:06:53;;;;;;;6.53;1.40;;;;;;;6.44;88.58;99881.66;5027554;28;20071;-65
2023/01/15 01:09:19;;;;;;;6.60;1.40;;;;;;;6.43;88.07;99882.50;5027369;28;20057;-65
2023/01/15 01:11:44;;;;;;;6.70;1.50;;;;;;;6.41;88.32;99876.38;5026962;28;20026;-65
2023/01/15 01:14:11;;;;;;;6.50;1.30;;;;;;;6.39;88.79;99870.31;5027053;28;20018;-65
2023/01/15 01:16:38;;;;;;;5.47;1.35;;;;;;;6.38;88.50;99865.09;5027043;28;20025;-65
2023/01/15 01:19:11;;;;;;;4.57;1.30;;;;;;;6.38;88.96;99872.88;5027168;28;20029;-65
2023/01/15 01:21:38;;;;;;;8.48;1.60;;;;;;;6.36;88.34;99871.97;5027088;28;20069;-65
2023/01/15 01:24:05;;;;;;;5.97;1.50;;;;;;;6.34;88.11;99871.91;5026816;28;20022;-65
2023/01/15 01:26:31;;;;;;;8.13;1.40;;;;;;;6.33;88.18;99887.38;5026755;28;20029;-65
2023/01/15 01:28:56;;;;;;;6.72;1.20;;;;;;;6.31;88.93;99876.13;5027235;28;20472;-65
2023/01/15 01:31:23;;;;;;;5.65;1.27;;;;;;;6.30;88.23;99872.69;5026763;28;20029;-65
2023/01/15 01:33:54;;;;;;;8.43;1.50;;;;;;;6.32;88.26;99870.13;5027104;28;20033;-65
2023/01/15 01:36:20;;;;;;;5.35;1.30;;;;;;;6.30;88.10;99869.22;5026559;28;20033;-67
2023/01/15 01:38:48;;;;;;;7.57;1.50;;;;;;;6.30;87.83;99880.44;5026629;28;20029;-65
2023/01/15 01:41:15;;;;;;;5.82;1.40;;;;;;;6.31;87.35;99878.72;5026502;28;20033;-65
2023/01/15 01:44:31;;;;;;;5.68;1.33;;;;;;;6.32;87.98;99881.34;5026245;28;20075;-65
2023/01/15 01:46:57;;;;;;;4.18;1.13;;;;;;;6.32;86.95;99883.06;5005375;28;20626;-65
2023/01/15 01:49:23;;;;;;;6.80;1.27;;;;;;;6.30;86.88;99885.63;5005175;28;20116;-65
2023/01/15 01:51:55;;;;;;;6.65;1.30;;;;;;;6.30;87.15;99877.88;5016986;28;20506;-65
2023/01/15 01:54:24;;;;;;;5.57;1.25;;;;;;;6.29;87.27;99860.59;5026448;28;20394;-65
2023/01/15 01:56:50;;;;;;;6.13;1.25;;;;;;;6.30;86.94;99880.44;5024897;28;20055;-65
2023/01/15 01:59:19;;;;;;;8.60;1.48;;;;;;;6.30;87.23;99879.56;5025973;28;20032;-65
2023/01/15 02:01:45;;;;;;;7.65;1.48;;;;;;;6.30;86.66;99883.03;5026270;28;20527;-65
2023/01/15 02:04:11;;;;;;;4.38;1.30;;;;;;;6.28;86.76;99873.47;5026357;28;21552;-65
2023/01/15 02:06:38;;;;;;;5.35;1.30;;;;;;;6.28;86.26;99879.53;5026126;28;20109;-65
2023/01/15 02:09:04;;;;;;;5.75;1.70;;;;;;;6.28;85.82;99871.75;5026286;28;20122;-65
2023/01/15 02:11:31;;;;;;;8.27;1.30;;;;;;;6.27;86.36;99890.69;5026100;28;20026;-65
2023/01/15 02:14:11;;;;;;;6.45;1.52;;;;;;;6.27;87.22;99882.94;5025848;28;20044;-65
2023/01/15 02:16:42;;;;;;;;;;;;;;;6.31;88.68;99889.06;5025870;28;20061;-65
2023/01/15 02:19:44;;;;;;;7.68;1.50;;;;;;;6.27;87.41;99882.94;5025898;28;19913;-65
2023/01/15 02:22:24;;;;;;;6.57;1.65;;;;;;;6.26;86.38;99881.22;5010174;28;20157;-65
2023/01/15 02:25:08;;;;;;;7.47;1.33;;;;;;;6.24;87.16;99876.00;5026028;28;20033;-64
2023/01/15 02:27:37;;;;;;;6.00;1.35;;;;;;;6.23;87.43;99869.06;5026080;28;20040;-65
2023/01/15 02:30:05;;;;;;;7.10;1.27;;;;;;;6.22;86.86;99871.63;5025434;28;20029;-65
2023/01/15 02:32:42;;;;;;;8.43;1.63;;;;;;;6.21;86.92;99863.00;5025588;28;20462;-65
2023/01/15 02:35:33;;;;;;;6.88;1.45;;;;;;;6.21;87.51;99862.09;5025218;28;20026;-65
2023/01/15 02:38:04;;;;;;;5.03;0.85;;;;;;;6.18;87.54;99857.72;5025387;28;20029;-65
2023/01/15 02:40:31;;;;;;;5.60;1.23;;;;;;;6.17;87.17;99852.50;5024293;28;20378;-65
2023/01/15 02:42:58;;;;;;;5.75;1.38;;;;;;;6.14;87.85;99855.00;5024249;28;20439;-65
2023/01/15 02:45:30;;;;;;;6.07;1.10;;;;;;;6.12;87.47;99870.50;5025495;28;20018;-65
2023/01/15 02:48:02;;;;;;;6.68;1.35;;;;;;;6.11;86.89;99860.13;5025089;28;20096;-65
2023/01/15 02:50:34;;;;;;;4.20;1.30;;;;;;;6.09;86.64;99848.00;5024966;28;21201;-65
2023/01/15 02:53:04;;;;;;;5.82;1.10;;;;;;;6.08;86.85;99847.97;5025297;28;20025;-65
2023/01/15 02:55:33;;;;;;;5.85;1.38;;;;;;;6.05;86.53;99851.38;5024935;28;20057;-64
2023/01/15 02:58:03;;;;;;;2.72;1.02;;;;;;;6.04;86.46;99839.28;5024000;28;20107;-65
2023/01/15 03:00:31;;;;;;;5.53;1.40;;;;;;;6.06;86.53;99844.47;5024916;28;20025;-65
2023/01/15 03:03:10;;;;;;;6.55;1.30;;;;;;;6.05;86.50;99843.63;5024820;28;20033;-65
2023/01/15 03:05:40;;;;;;;6.70;1.00;;;;;;;6.05;86.72;99855.66;5025099;28;20364;-64
2023/01/15 03:08:07;;;;;;;5.15;1.05;;;;;;;6.03;86.07;99852.16;5025112;28;20049;-65
2023/01/15 03:10:46;;;;;;;6.18;1.40;;;;;;;6.00;86.72;99854.69;5024630;28;20029;-65
2023/01/15 03:13:19;;;;;;;7.70;1.48;;;;;;;6.00;86.47;99857.25;5024744;28;20480;-65
2023/01/15 03:18:46;;;;;;;7.00;1.65;;;;;;;6.00;86.10;99863.28;5024739;28;20041;-65
2023/01/15 03:21:19;;;;;;;6.55;1.30;;;;;;;5.99;85.26;99858.94;5024348;28;20033;-65
2023/01/15 03:23:49;;;;;;;7.00;1.50;;;;;;;6.00;85.42;99854.69;5024307;28;20080;-65
2023/01/15 03:26:14;;;;;;;;;;;;;;;6.03;87.09;99847.00;5025091;28;20036;-65
2023/01/15 03:28:40;;;;;;;7.07;1.23;;;;;;;6.02;85.15;99840.06;5024604;28;19916;-65
2023/01/15 03:31:06;;;;;;;5.25;1.10;;;;;;;6.00;85.47;99847.78;5024993;28;20033;-65
2023/01/15 03:33:33;;;;;;;5.57;1.38;;;;;;;5.99;85.58;99846.03;5024708;28;20044;-65
2023/01/15 03:36:00;;;;;;;7.35;1.90;;;;;;;5.99;84.73;99835.69;5024624;28;20021;-65
2023/01/15 03:38:31;;;;;;;6.95;1.35;;;;;;;5.97;85.15;99836.44;5024451;28;20107;-65
2023/01/15 03:41:13;;;;;;;6.47;1.58;;;;;;;5.96;84.45;99845.06;5024363;28;20029;-65
2023/01/15 03:43:59;;;;;;;8.77;1.63;;;;;;;5.96;85.32;99845.06;5024187;28;20125;-65
2023/01/15 03:47:06;;;;;;;4.88;1.10;;;;;;;5.96;84.74;99852.81;5023795;28;20124;-65
2023/01/15 03:49:43;;;;;;;8.10;1.40;;;;;;;5.96;84.41;99860.56;5024078;28;20044;-65
2023/01/15 03:52:32;;;;;;;4.85;1.02;;;;;;;5.96;84.67;99847.63;5023591;28;20079;-65
2023/01/15 03:55:12;;;;;;;7.97;1.60;;;;;;;5.97;84.29;99851.94;5023742;28;20495;-65
2023/01/15 03:57:43;;;;;;;4.03;1.50;;;;;;;5.94;84.21;99855.34;5023916;28;20053;-65
2023/01/15 04:00:15;;;;;;;9.88;1.73;;;;;;;5.92;83.86;99846.66;5024329;28;20145;-65
2023/01/15 04:02:44;;;;;;;9.55;1.70;;;;;;;5.91;84.93;99848.38;5024285;28;20025;-65
2023/01/15 04:05:10;;;;;;;8.37;1.63;;;;;;;5.91;84.68;99857.88;5023925;28;20033;-65
2023/01/15 04:07:35;;;;;;;7.28;1.20;;;;;;;5.90;84.89;99845.75;5023439;28;20036;-65
2023/01/15 04:10:00;;;;;;;6.63;1.17;;;;;;;5.88;84.18;99843.13;5024179;28;20029;-65
2023/01/15 04:12:26;;;;;;;7.32;1.40;;;;;;;5.90;84.45;99845.75;5024278;28;20037;-65
2023/01/15 04:14:52;;;;;;;11.18;1.60;;;;;;;5.90;84.20;99845.75;5024155;28;20029;-65
2023/01/15 04:17:17;;;;;;;7.45;1.38;;;;;;;5.89;84.37;99847.47;5023311;28;20040;-65
2023/01/15 04:19:43;;;;;;;6.47;1.30;;;;;;;5.88;83.51;99844.81;5023885;28;20483;-65
2023/01/15 04:22:10;;;;;;;4.68;1.05;;;;;;;5.85;83.97;99847.34;5023663;28;20030;-65
2023/01/15 04:24:36;;;;;;;7.50;1.23;;;;;;;5.85;83.65;99849.94;5024267;28;20025;-65
2023/01/15 04:27:01;;;;;;;7.32;1.17;;;;;;;5.85;84.20;99852.50;5023603;28;20030;-65
2023/01/15 04:29:26;;;;;;;6.85;1.13;;;;;;;5.83;85.33;99836.09;5023636;28;20036;-65
2023/01/15 04:31:56;;;;;;;5.07;1.13;;;;;;;5.81;84.16;99830.88;5023570;28;20029;-65
2023/01/15 04:34:21;;;;;;;8.50;1.20;;;;;;;5.80;84.67;99838.59;5023889;28;20480;-65
2023/01/15 04:36:46;;;;;;;7.13;1.35;;;;;;;5.78;84.22;99840.25;5023407;28;20037;-65
2023/01/15 04:39:12;;;;;;;10.52;1.52;;;;;;;5.75;84.59;99844.53;5023607;28;20017;-65
2023/01/15 04:44:25;;;;;;;6.70;1.35;;;;;;;5.74;83.42;99847.94;5024100;28;20037;-65
2023/01/15 04:46:52;;;;;;;7.00;1.63;;;;;;;5.74;84.42;99855.69;5039905;28;20045;-64
2023/01/15 04:49:17;;;;;;;7.53;1.60;;;;;;;5.71;85.11;99859.91;5022361;28;20514;-65
2023/01/15 04:51:43;;;;;;;6.00;1.27;;;;;;;5.71;84.83;99860.78;5023687;28;20021;-65
2023/01/15 04:54:11;;;;;;;9.57;1.48;;;;;;;5.71;85.88;99865.09;5023908;28;20029;-65
2023/01/15 04:56:40;;;;;;;9.57;1.48;;;;;;;5.70;85.95;99869.34;5023009;28;20107;-64
2023/01/15 04:59:05;;;;;;;6.70;1.42;;;;;;;5.69;85.84;99875.38;5023522;28;20487;-65
2023/01/15 05:01:31;;;;;;;7.25;1.45;;;;;;;5.68;85.28;99863.28;5023435;28;20048;-65
2023/01/15 05:03:57;;;;;;;7.80;1.23;;;;;;;5.68;85.52;99870.16;5023423;28;20021;-65
2023/01/15 05:06:23;;;;;;;6.82;1.40;;;;;;;5.67;85.60;99851.19;5023713;28;20030;-65
2023/01/15 05:08:49;;;;;;;7.25;1.52;;;;;;;5.68;85.74;99860.69;5023682;28;20021;-65
2023/01/15 05:11:14;;;;;;;7.07;1.20;;;;;;;5.66;86.33;99866.66;5023622;28;20044;-65
2023/01/15 05:13:39;;;;;;;8.23;1.60;;;;;;;5.65;85.87;99868.38;5023611;28;20092;-65
2023/01/15 05:16:25;;;;;;;7.55;1.40;;;;;;;5.64;85.17;99861.44;5023327;28;20026;-65
2023/01/15 05:18:53;;;;;;;6.32;1.25;;;;;;;5.65;85.19;99868.38;5023239;28;20418;-65
2023/01/15 05:21:20;;;;;;;6.25;1.60;;;;;;;5.65;85.45;99868.38;5025810;28;20025;-65
2023/01/15 05:23:45;;;;;;;9.30;1.50;;;;;;;5.64;85.72;99860.56;5027120;28;20116;-65
2023/01/15 05:26:11;;;;;;;6.20;1.20;;;;;;;5.64;84.66;99858.84;5027156;28;20124;-64
2023/01/15 05:28:36;;;;;;;6.13;1.15;;;;;;;5.64;84.87;99856.28;5026871;28;20079;-65
2023/01/15 05:31:10;;;;;;;6.85;1.23;;;;;;;5.67;84.78;99860.66;5026676;28;20407;-65
2023/01/15 05:33:36;;;;;;;7.32;1.33;;;;;;;5.66;84.67;99852.03;5026809;28;20029;-65
2023/01/15 05:36:07;;;;;;;9.07;1.20;;;;;;;5.65;85.01;99844.22;5026498;28;20037;-65
2023/01/15 05:38:33;;;;;;;6.22;1.40;;;;;;;5.63;84.24;99851.94;5025101;28;20376;-64
2023/01/15 05:40:58;;;;;;;7.65;1.42;;;;;;;5.63;84.38;99843.31;5026431;28;20107;-64
2023/01/15 05:43:24;;;;;;;5.68;1.20;;;;;;;5.61;84.13;99848.44;5026385;28;21022;-64
2023/01/15 05:45:49;;;;;;;10.68;1.42;;;;;;;5.61;84.33;99845.84;5026336;28;20025;-65
2023/01/15 05:48:14;;;;;;;6.20;1.23;;;;;;;5.63;84.79;99840.72;5026125;28;20025;-64
2023/01/15 05:50:39;;;;;;;7.80;1.30;;;;;;;5.61;84.83;99840.69;5026434;28;20494;-64
2023/01/15 05:53:06;;;;;;;7.72;1.33;;;;;;;5.61;85.40;99835.53;5025835;28;20307;-64
2023/01/15 05:55:32;;;;;;;9.55;1.40;;;;;;;5.58;85.86;99833.72;5026137;28;20187;-65
2023/01/15 05:57:57;;;;;;;7.70;1.50;;;;;;;5.57;85.85;99836.25;5026136;28;20084;-65
2023/01/15 06:00:24;;;;;;;9.45;1.52;;;;;;;5.56;85.96;99839.66;5026686;28;20106;-64
2023/01/15 06:02:50;;;;;;;6.28;1.58;;;;;;;5.56;86.44;99844.84;5024632;28;20416;-64
2023/01/15 06:05:19;;;;;;;9.18;1.75;;;;;;;5.55;86.67;99827.59;5025736;28;20021;-65
2023/01/15 06:07:47;;;;;;;7.07;1.30;;;;;;;5.56;86.87;99850.00;5025947;28;20049;-65
2023/01/15 06:10:14;;;;;;;6.57;1.33;;;;;;;5.57;87.46;99841.44;5025871;28;20043;-64
2023/01/15 06:12:39;;;;;;;9.18;1.23;;;;;;;5.57;87.70;99839.72;5025446;28;20055;-65
2023/01/15 06:15:05;;;;;;;9.10;1.90;;;;;;;5.60;88.18;99856.16;5025467;28;20049;-65
2023/01/15 06:17:30;;;;;;;8.90;1.58;;;;;;;5.62;88.23;99852.78;5025947;28;20025;-65
2023/01/15 06:19:56;;;;;;;7.60;1.67;;;;;;;5.64;88.16;99861.44;5026204;28;20436;-64
2023/01/15 06:22:21;;;;;;;5.57;1.38;;;;;;;5.62;88.18;99857.06;5026077;28;20033;-65
2023/01/15 06:24:46;;;;;;;8.48;1.40;;;;;;;5.62;87.66;99864.81;5026098;28;20030;-64
2023/01/15 06:27:12;;;;;;;9.30;2.53;;;;;;;5.62;88.02;99865.69;5025339;28;20053;-64
2023/01/15 06:29:37;;;;;;;9.82;1.58;;;;;;;5.61;87.98;99866.53;5025713;28;20026;-64
2023/01/15 06:32:02;;;;;;;6.60;1.67;;;;;;;5.58;87.56;99867.31;5025063;28;20033;-64
2023/01/15 06:34:27;;;;;;;8.43;1.20;;;;;;;5.59;87.58;99870.78;5025488;28;20021;-65
2023/01/15 06:36:53;;;;;;;6.70;1.20;;;;;;;5.56;87.81;99865.50;5025564;28;20044;-65
2023/01/15 06:39:18;;;;;;;5.70;1.33;;;;;;;5.55;87.25;99868.94;5025520;28;20087;-65
2023/01/15 06:47:19;;;;;;;8.75;1.42;;;;;;;5.49;85.52;99868.75;5025533;28;20046;-65
2023/01/15 06:49:45;;;;;;;7.95;1.63;;;;;;;5.47;85.42;99871.28;5025450;28;20033;-64
2023/01/15 06:52:11;;;;;;;7.80;1.27;;;;;;;5.45;85.41;99862.63;5024411;28;20091;-64
2023/01/15 06:54:38;;;;;;;5.22;0.95;;;;;;;5.45;85.80;99872.09;5024811;28;20128;-65
2023/01/15 06:57:03;;;;;;;7.47;1.73;;;;;;;5.43;84.76;99871.16;5025163;28;20045;-64
2023/01/15 06:59:28;;;;;;;8.02;1.60;;;;;;;5.39;84.33;99868.50;5023805;28;20035;-64
2023/01/15 07:01:54;;;;;;;9.80;1.35;;;;;;;5.37;85.39;99874.44;5024740;28;20491;-64
2023/01/15 07:04:20;;;;;;;7.80;1.30;;;;;;;5.34;84.85;99877.81;5024949;28;20025;-64
2023/01/15 07:06:45;;;;;;;5.22;1.20;;;;;;;5.32;84.81;99876.91;5024942;28;20037;-65
2023/01/15 07:09:11;;;;;;;7.30;1.40;;;;;;;5.27;85.74;99878.50;5024834;28;20029;-65
2023/01/15 07:11:48;;;;;;;7.45;1.55;;;;;;;5.25;86.34;99874.97;5024992;28;20108;-65
2023/01/15 07:14:18;;;;;;;6.97;1.40;;;;;;;5.22;86.08;99885.22;5024645;28;20033;-64
2023/01/15 07:16:43;;;;;;;9.05;1.30;;;;;;;5.19;86.40;99886.00;5024717;28;20037;-64
2023/01/15 07:19:12;;;;;;;6.40;1.20;;;;;;;5.18;86.29;99888.53;5024660;28;20079;-65
2023/01/15 07:21:40;;;;;;;6.70;1.50;;;;;;;5.18;85.95;99893.69;5024913;28;20022;-64
2023/01/15 07:24:07;;;;;;;8.27;1.52;;;;;;;5.15;86.77;99891.91;5024470;28;20636;-64
2023/01/15 07:26:32;;;;;;;4.25;1.13;;;;;;;5.16;86.73;99895.38;5024428;28;20096;-64
2023/01/15 07:28:57;;;;;;;7.07;1.17;;;;;;;5.17;86.81;99899.69;5024971;28;20499;-64
2023/01/15 07:31:22;;;;;;;6.05;1.30;;;;;;;5.19;86.95;99906.66;5024323;28;20595;-64
2023/01/15 07:33:48;;;;;;;5.32;1.20;;;;;;;5.21;86.06;99898.97;5024302;28;20074;-65
2023/01/15 07:36:13;;;;;;;4.72;1.13;;;;;;;5.24;85.85;99893.88;5023022;28;20021;-62
2023/01/15 07:38:39;;;;;;;7.47;1.30;;;;;;;5.25;86.01;99910.28;5024442;28;20021;-62
2023/01/15 07:52:00;;;;;;;7.90;1.10;;;;;;;5.28;84.81;99906.06;5024123;28;20530;-62
2023/01/15 07:54:26;;;;;;;5.57;1.10;;;;;;;5.27;84.22;99921.50;5024115;28;20025;-61
2023/01/15 07:56:52;;;;;;;7.25;1.55;;;;;;;5.25;83.74;99924.06;5023784;28;20044;-61
2023/01/15 07:59:18;;;;;;;5.97;1.20;;;;;;;5.24;84.09;99922.28;5024611;28;20077;-61
2023/01/15 08:01:43;;;;;;;5.25;1.02;;;;;;;5.23;84.32;99918.84;5023690;28;20514;-61
2023/01/15 08:04:08;;;;;;;4.43;1.42;;;;;;;5.23;83.83;99918.84;5023993;28;20087;-61
2023/01/15 08:06:34;;;;;;;6.75;1.38;;;;;;;5.21;84.10;99914.44;5023893;28;20024;-62
2023/01/15 08:08:59;;;;;;;5.72;1.30;;;;;;;5.19;84.24;99924.72;5023648;28;20076;-61
2023/01/15 08:16:53;;;;;;;5.20;1.35;;;;;;;5.11;83.07;99935.66;5022867;28;20502;-61
2023/01/15 08:19:18;;;;;;;6.45;1.70;;;;;;;5.05;83.26;99924.34;5023424;28;20037;-61
2023/01/15 08:21:44;;;;;;;6.28;1.65;;;;;;;5.03;83.03;99925.09;5023660;28;20025;-61
2023/01/15 08:24:09;;;;;;;6.05;1.65;;;;;;;5.02;83.56;99944.00;5023723;28;20681;-61
2023/01/15 08:26:34;;;;;;;4.75;1.33;;;;;;;4.98;83.77;99940.47;5023417;28;20098;-61
2023/01/15 08:29:00;;;;;;;5.85;1.27;;;;;;;4.96;83.77;99933.50;5023801;28;20033;-61
2023/01/15 08:31:25;;;;;;;5.63;1.40;;;;;;;4.92;83.66;99935.06;5021774;28;20021;-61
2023/01/15 08:33:50;;;;;;;5.78;1.20;;;;;;;4.91;83.60;99929.88;5023761;28;20041;-61
2023/01/15 08:36:17;;;;;;;4.03;0.90;;;;;;;4.91;84.03;99938.50;5023822;28;20025;-65
2023/01/15 08:38:43;;;;;;;3.95;0.77;;;;;;;4.92;84.00;99937.66;5023659;28;20068;-65
2023/01/15 08:41:08;;;;;;;7.05;1.15;;;;;;;4.92;83.71;99937.66;5023612;28;20049;-64
2023/01/15 08:43:34;;;;;;;5.90;0.98;;;;;;;4.92;83.68;99926.47;5023883;28;20056;-64
2023/01/15 08:46:00;;;;;;;4.63;0.98;;;;;;;4.92;84.12;99932.50;5023626;28;20267;-64
2023/01/15 08:48:28;;;;;;;3.70;0.90;;;;;;;4.93;84.23;99926.50;5023533;28;20033;-65
2023/01/15 08:50:53;;;;;;;4.50;0.90;;;;;;;4.94;84.64;99930.88;5023447;28;20036;-65
2023/01/15 08:53:19;;;;;;;5.50;1.10;;;;;;;4.95;83.91;99927.44;5023299;28;21132;-65
2023/01/15 08:55:45;;;;;;;6.53;1.10;;;;;;;4.98;84.33;99922.38;5025535;28;20037;-64
2023/01/15 08:58:10;;;;;;;6.80;1.33;;;;;;;4.98;84.21;99927.56;5025734;28;20042;-64
2023/01/15 09:00:36;;;;;;;3.33;1.00;;;;;;;5.00;83.82;99918.13;5027233;28;20822;-66
2023/01/15 09:03:02;;;;;;;6.50;1.00;;;;;;;5.01;84.21;99917.31;5024142;28;20041;-64
2023/01/15 09:05:27;;;;;;;5.03;1.10;;;;;;;5.02;84.28;99913.88;5025921;28;20102;-64
2023/01/15 09:07:53;;;;;;;6.10;1.00;;;;;;;5.04;84.52;99916.53;5026209;28;20029;-64
2023/01/15 09:10:19;;;;;;;7.10;1.10;;;;;;;5.08;84.47;99894.25;5025959;28;20033;-65
2023/01/15 09:12:45;;;;;;;4.88;1.00;;;;;;;5.09;84.94;99914.09;5026269;28;20034;-64
2023/01/15 09:15:10;;;;;;;6.97;1.05;;;;;;;5.10;84.68;99908.06;5026211;28;20471;-64
2023/01/15 09:17:39;;;;;;;6.03;1.23;;;;;;;5.12;84.63;99907.31;5025836;28;20112;-65
2023/01/15 09:20:08;;;;;;;;;;;;;;;5.17;84.95;99903.16;5026446;28;20521;-64
2023/01/15 09:22:34;;;;;;;5.80;1.25;;;;;;;5.18;84.91;99910.06;5026639;28;19913;-64
2023/01/15 09:24:59;;;;;;;7.45;1.27;;;;;;;5.20;84.50;99910.13;5027062;28;20025;-64
2023/01/15 09:27:28;;;;;;;5.38;1.20;;;;;;;5.23;84.60;99921.41;5026936;28;21040;-64
2023/01/15 09:29:54;;;;;;;9.40;2.03;;;;;;;5.30;84.67;99924.19;5026735;28;20124;-64
2023/01/15 09:32:19;;;;;;;8.00;1.35;;;;;;;5.37;84.00;99931.28;5025555;28;20101;-64
2023/01/15 09:34:45;;;;;;;6.70;1.50;;;;;;;5.40;83.50;99916.75;5026692;28;20033;-64
2023/01/15 09:37:10;;;;;;;6.75;1.42;;;;;;;5.44;83.85;99922.88;5026403;28;20756;-64
2023/01/15 09:39:39;;;;;;;7.18;1.40;;;;;;;5.48;83.81;99921.28;5026420;28;20048;-64
2023/01/15 09:42:29;;;;;;;7.63;1.42;;;;;;;5.52;83.63;99915.38;5026688;28;20041;-64
2023/01/15 09:45:09;;;;;;;7.57;1.40;;;;;;;5.55;83.09;99920.63;5026324;28;20041;-65
2023/01/15 09:48:00;;;;;;;6.85;1.23;;;;;;;5.55;83.61;99930.97;5026197;28;20056;-65
2023/01/15 09:50:37;;;;;;;10.93;1.75;;;;;;;5.52;82.90;99929.16;5025738;28;20086;-64
2023/01/15 09:53:16;;;;;;;8.23;1.40;;;;;;;5.53;83.06;99924.84;5026136;28;20029;-64
2023/01/15 09:55:49;;;;;;;6.82;1.23;;;;;;;5.49;83.13;99930.75;5025651;28;20760;-64
2023/01/15 09:58:18;;;;;;;10.32;1.88;;;;;;;5.53;81.95;99938.69;5026045;28;20080;-64
2023/01/15 10:00:47;;;;;;;8.38;1.67;;;;;;;5.58;81.73;99938.81;5026123;28;20207;-64
2023/01/15 10:03:22;;;;;;;7.43;1.35;;;;;;;5.63;82.90;99929.47;5025584;28;20044;-64
2023/01/15 10:06:15;;;;;;;8.93;1.40;;;;;;;5.71;83.01;99943.47;5025022;28;20021;-64
2023/01/15 10:08:46;;;;;;;8.10;1.60;;;;;;;5.74;81.99;99938.41;5026045;28;20038;-64
2023/01/15 10:11:14;;;;;;;6.60;1.10;;;;;;;5.80;81.72;99944.59;5025582;28;20171;-64
2023/01/15 10:13:47;;;;;;;9.48;1.48;;;;;;;5.84;81.78;99949.88;5025052;28;20656;-64
2023/01/15 10:16:19;;;;;;;6.75;1.38;;;;;;;5.90;80.36;99944.88;5025387;28;20128;-64
2023/01/15 10:18:45;;;;;;;6.85;1.27;;;;;;;5.86;80.17;99949.91;5025730;28;20057;-64
2023/01/15 10:21:23;;;;;;;7.72;1.23;;;;;;;5.86;80.42;99952.50;5025358;28;20943;-64
2023/01/15 10:23:54;;;;;;;7.72;1.27;;;;;;;5.90;79.28;99954.34;5024884;28;20080;-64
2023/01/15 10:26:35;;;;;;;7.53;1.40;;;;;;;5.91;81.05;99932.84;5025673;28;20025;-64
2023/01/15 10:29:11;;;;;;;10.38;1.52;;;;;;;5.95;80.45;99939.81;5025791;28;20121;-65
2023/01/15 10:31:58;;;;;;;8.70;1.50;;;;;;;5.95;79.85;99937.22;5025330;28;20030;-64
2023/01/15 10:34:29;;;;;;;7.22;1.20;;;;;;;5.93;80.98;99944.94;5025196;28;20063;-65
2023/01/15 10:37:05;;;;;;;7.68;1.35;;;;;;;6.00;80.79;99956.38;5025051;28;20479;-64
2023/01/15 10:39:57;;;;;;;7.90;1.30;;;;;;;6.02;81.13;99944.38;5025599;28;20045;-65
2023/01/15 10:42:40;;;;;;;9.77;1.70;;;;;;;6.04;81.15;99942.72;5025191;28;20080;-64
2023/01/15 10:45:22;;;;;;;7.63;1.55;;;;;;;6.08;80.45;99952.31;5025312;28;20376;-64
2023/01/15 10:47:56;;;;;;;6.80;1.42;;;;;;;6.12;79.91;99945.50;5025103;28;20034;-64
2023/01/15 10:50:25;;;;;;;7.63;2.00;;;;;;;6.16;79.57;99951.66;5024835;28;20053;-65
2023/01/15 10:53:41;;;;;;;7.13;1.30;;;;;;;6.21;80.93;99939.69;5024873;28;20108;-64
2023/01/15 10:56:25;;;;;;;5.75;1.17;;;;;;;6.26;79.71;99944.16;4983363;28;20789;-64
2023/01/15 10:59:14;;;;;;;7.32;1.50;;;;;;;6.31;79.81;99941.69;5024532;28;20087;-64
2023/01/15 11:01:40;;;;;;;8.00;1.48;;;;;;;6.31;79.23;99940.81;5024373;28;20031;-64
2023/01/15 11:04:12;;;;;;;6.82;1.63;;;;;;;6.25;79.29;99936.34;5024348;28;20025;-64
2023/01/15 11:06:38;;;;;;;7.28;1.40;;;;;;;6.26;78.62;99935.53;5024589;28;20115;-64
2023/01/15 11:09:05;;;;;;;6.93;1.30;;;;;;;6.32;77.88;99955.50;5024851;28;20029;-64
2023/01/15 11:20:04;;;;;;;3.75;1.08;;;;;;;6.41;77.72;99961.78;5023864;28;20466;-64
2023/01/15 11:22:29;;;;;;;9.18;1.42;;;;;;;6.39;77.52;99950.53;5024219;28;20025;-64
2023/01/15 11:24:59;;;;;;;8.00;1.35;;;;;;;6.36;78.32;99945.28;5024607;28;20025;-64
2023/01/15 11:27:34;;;;;;;5.53;1.35;;;;;;;6.36;79.39;99959.94;5024878;28;20029;-64
2023/01/15 11:30:02;;;;;;;4.20;1.38;;;;;;;6.36;78.82;99957.34;5024066;28;20021;-64
2023/01/15 11:32:37;;;;;;;6.00;1.50;;;;;;;6.38;78.60;99945.31;5024312;28;20168;-65
2023/01/15 11:35:17;;;;;;;4.47;1.38;;;;;;;6.36;78.74;99952.19;5023815;28;20048;-64
2023/01/15 11:37:43;;;;;;;4.22;1.02;;;;;;;6.31;79.25;99962.38;5024003;28;20037;-64
2023/01/15 11:40:22;;;;;;;3.85;1.27;;;;;;;6.31;79.08;99952.03;5024145;28;20147;-64
2023/01/15 11:51:13;;;;;;;6.15;1.08;;;;;;;6.36;77.71;99972.88;5023963;28;20053;-64
2023/01/15 11:53:45;;;;;;;4.78;1.10;;;;;;;6.33;78.73;99962.41;5023851;28;20035;-64
2023/01/15 11:56:15;;;;;;;6.32;1.33;;;;;;;6.34;79.20;99957.28;5023737;28;20061;-64
2023/01/15 11:58:48;;;;;;;7.10;1.20;;;;;;;6.40;78.75;99962.66;5024380;28;20033;-64
2023/01/15 12:01:25;;;;;;;5.97;0.98;;;;;;;6.49;78.79;99955.94;5024287;28;20033;-64
2023/01/15 12:03:51;;;;;;;6.88;1.42;;;;;;;6.48;78.57;99961.97;5024353;28;20033;-64
2023/01/15 12:06:19;;;;;;;4.97;1.10;;;;;;;6.48;78.32;99957.66;5024167;28;20053;-64
2023/01/15 12:09:03;;;;;;;6.07;1.30;;;;;;;6.46;79.02;99949.00;5023665;28;20053;-64
2023/01/15 12:11:40;;;;;;;5.68;1.20;;;;;;;6.43;79.22;99947.19;5023791;28;20079;-65
2023/01/15 12:14:30;;;;;;;5.72;1.30;;;;;;;6.39;78.28;99958.28;5023637;28;20021;-64
2023/01/15 12:17:20;;;;;;;6.22;1.55;;;;;;;6.34;79.29;99962.47;5023614;28;20060;-64
2023/01/15 12:20:07;;;;;;;4.57;1.30;;;;;;;6.32;78.52;99940.84;5023506;28;20021;-64
2023/01/15 12:22:50;;;;;;;6.75;1.40;;;;;;;6.31;78.44;99944.28;5023761;28;20037;-64
2023/01/15 12:25:41;;;;;;;5.75;1.48;;;;;;;6.29;79.36;99943.38;5021366;28;20505;-64
2023/01/15 12:28:27;;;;;;;7.53;1.30;;;;;;;6.29;78.90;99938.19;5023756;28;20499;-64
2023/01/15 12:31:15;;;;;;;7.30;1.50;;;;;;;6.28;79.29;99948.50;5027308;28;20025;-64
2023/01/15 12:34:05;;;;;;;5.70;1.30;;;;;;;6.26;78.82;99923.47;5027335;28;20061;-64
2023/01/15 12:36:40;;;;;;;7.95;1.20;;;;;;;6.26;79.69;99957.09;5027447;28;20032;-64
2023/01/15 12:39:23;;;;;;;4.90;1.30;;;;;;;6.27;79.42;99939.84;5027779;28;20098;-64
2023/01/15 12:45:02;;;;;;;5.68;1.52;;;;;;;6.30;78.65;99945.13;5027674;28;20040;-64